Time;durP1;ratioP1;P1;durP2;ratioP2;P2;SDS_P1;SDS_P2;PMS_P1;PMS_P2;Temp;Humidity;BMP_temperature;BMP_pressure;BME280_temperature;BME280_humidity;BME280_pressure;Samples;Min_cycle;Max_cycle;Signal;HPM_P1;HPM_P2
2021/12/28 00:03:08;;;;;;;104.77;38.40;;;;;;;-5.46;92.60;98538.00;4140069;83;21011;-80
2021/12/28 00:09:10;;;;;;;111.13;40.53;;;;;;;-5.43;92.59;98536.91;4138849;85;21106;-80
2021/12/28 00:15:33;;;;;;;112.40;39.47;;;;;;;-5.41;92.53;98536.63;4134293;85;21615;-80
2021/12/28 00:21:28;;;;;;;107.17;41.70;;;;;;;-5.41;92.51;98533.42;4129440;85;21042;-80
2021/12/28 00:27:31;;;;;;;107.23;38.57;;;;;;;-5.38;92.55;98530.19;4132893;85;21080;-80
2021/12/28 00:33:33;;;;;;;110.37;38.90;;;;;;;-5.35;92.64;98528.81;4134743;84;21066;-80
2021/12/28 00:39:35;;;;;;;113.43;39.17;;;;;;;-5.32;92.62;98525.05;4135790;85;21105;-81
2021/12/28 00:45:36;;;;;;;108.07;40.90;;;;;;;-5.27;92.73;98522.86;4136367;84;21109;-81
2021/12/28 00:51:38;;;;;;;100.73;38.87;;;;;;;-5.25;92.74;98528.19;4130325;84;21047;-81
2021/12/28 00:57:39;;;;;;;105.70;39.23;;;;;;;-5.20;92.75;98531.34;4135370;85;21062;-80
2021/12/28 01:03:40;;;;;;;102.40;38.83;;;;;;;-5.18;92.77;98530.49;4130445;85;21063;-80
2021/12/28 01:09:43;;;;;;;106.27;39.13;;;;;;;-5.15;92.87;98533.92;4136112;85;21044;-81
2021/12/28 01:15:44;;;;;;;111.40;41.23;;;;;;;-5.14;92.74;98532.34;4136192;85;21503;-80
2021/12/28 01:21:46;;;;;;;110.63;40.73;;;;;;;-5.10;92.82;98527.20;4133272;85;21128;-80
2021/12/28 01:27:47;;;;;;;97.93;38.17;;;;;;;-5.07;92.86;98520.77;4139653;85;21051;-81
2021/12/28 01:33:48;;;;;;;94.57;36.97;;;;;;;-5.04;92.85;98510.05;4136896;84;21050;-80
2021/12/28 01:39:49;;;;;;;91.63;36.60;;;;;;;-5.05;92.81;98502.59;4135728;85;21034;-80
2021/12/28 01:46:00;;;;;;;96.07;34.43;;;;;;;-5.03;92.89;98494.30;4135565;85;21083;-80
2021/12/28 01:52:01;;;;;;;86.80;34.27;;;;;;;-5.03;92.74;98477.72;4136925;84;21582;-81
2021/12/28 01:58:04;;;;;;;95.63;34.40;;;;;;;-5.06;92.80;98467.63;4135864;84;21084;-81
2021/12/28 02:04:24;;;;;;;91.63;35.43;;;;;;;-5.08;92.77;98467.67;4133370;84;21054;-81
2021/12/28 02:10:26;;;;;;;99.33;38.07;;;;;;;-5.10;92.88;98461.81;4136683;85;21074;-80
2021/12/28 02:16:28;;;;;;;94.90;35.20;;;;;;;-5.11;92.81;98457.57;4136957;84;21035;-81
2021/12/28 02:22:29;;;;;;;101.57;36.83;;;;;;;-5.17;92.73;98467.50;4137006;85;21118;-81
2021/12/28 02:28:31;;;;;;;95.43;35.80;;;;;;;-5.17;92.74;98471.50;4133725;84;21099;-81
2021/12/28 02:34:32;;;;;;;93.97;37.77;;;;;;;-5.19;92.81;98472.88;4134832;84;22204;-81
2021/12/28 02:40:35;;;;;;;96.17;39.00;;;;;;;-5.16;92.82;98475.78;4134830;84;21042;-80
2021/12/28 02:53:26;;;;;;;89.37;35.60;;;;;;;-5.17;92.72;98460.83;4089574;84;55526;-81
2021/12/28 02:59:27;;;;;;;91.70;37.17;;;;;;;-5.16;92.75;98449.62;4062986;86;21054;-81
2021/12/28 03:05:29;;;;;;;93.77;37.03;;;;;;;-5.18;92.67;98441.91;4060250;86;21152;-80
2021/12/28 03:11:32;;;;;;;95.20;36.50;;;;;;;-5.18;92.70;98441.91;4107639;85;21121;-80
2021/12/28 03:17:34;;;;;;;87.50;35.47;;;;;;;-5.23;92.67;98434.52;4100231;86;21054;-81
2021/12/28 03:23:37;;;;;;;95.50;36.97;;;;;;;-5.28;92.67;98433.23;4177618;84;21056;-81
2021/12/28 03:29:39;;;;;;;91.20;35.33;;;;;;;-5.34;92.62;98431.16;4170807;84;21662;-80
2021/12/28 03:35:40;;;;;;;90.43;35.10;;;;;;;-5.41;92.67;98432.06;4092482;86;21050;-80
2021/12/28 03:41:42;;;;;;;90.63;36.20;;;;;;;-5.46;92.65;98425.98;4128208;85;21055;-81
2021/12/28 03:47:43;;;;;;;89.33;36.23;;;;;;;-5.50;92.61;98415.64;4139430;85;21035;-81
2021/12/28 03:53:46;;;;;;;89.30;36.03;;;;;;;-5.52;92.81;98421.78;4142914;83;21617;-80
2021/12/28 03:59:51;;;;;;;88.37;35.93;;;;;;;-5.55;92.69;98419.69;4085177;86;21140;-80
2021/12/28 04:05:52;;;;;;;84.43;34.03;;;;;;;-5.58;92.84;98423.73;4174237;84;21039;-80
2021/12/28 04:11:56;;;;;;;87.03;34.37;;;;;;;-5.55;92.91;98434.36;4083270;86;22347;-81
2021/12/28 04:17:58;;;;;;;90.20;34.43;;;;;;;-5.54;93.00;98436.73;4182372;84;21038;-81
2021/12/28 04:24:01;;;;;;;83.33;33.60;;;;;;;-5.49;92.97;98431.88;4057383;85;46409;-80
2021/12/28 04:30:06;;;;;;;86.27;33.97;;;;;;;-5.49;92.98;98415.87;4137269;84;21050;-80
2021/12/28 04:36:14;;;;;;;66.53;28.47;;;;;;;-5.45;93.02;98422.25;4147333;84;21030;-81
2021/12/28 04:42:16;;;;;;;82.87;33.43;;;;;;;-5.41;93.00;98416.59;4114228;83;21082;-81
2021/12/28 04:48:17;;;;;;;86.10;32.47;;;;;;;-5.38;93.16;98420.02;4141780;84;21062;-81
2021/12/28 04:55:08;;;;;;;77.73;31.07;;;;;;;-5.34;93.28;98422.38;4145861;83;21066;-80
2021/12/28 05:01:12;;;;;;;75.00;32.10;;;;;;;-5.31;93.20;98419.91;4132160;84;21086;-82
2021/12/28 05:07:14;;;;;;;81.47;31.33;;;;;;;-5.30;93.04;98421.52;4109538;84;21610;-81
2021/12/28 05:13:16;;;;;;;81.30;33.00;;;;;;;-5.29;93.05;98421.77;4075876;86;21069;-81
2021/12/28 05:19:17;;;;;;;79.57;32.00;;;;;;;-5.30;93.14;98414.05;4068406;86;21552;-81
2021/12/28 05:25:19;;;;;;;77.73;31.43;;;;;;;-5.29;93.12;98422.30;4066823;86;21082;-81
2021/12/28 05:31:21;;;;;;;79.07;31.20;;;;;;;-5.30;93.20;98426.86;4072269;85;21097;-81
2021/12/28 05:37:22;;;;;;;76.57;31.23;;;;;;;-5.26;93.15;98423.08;4070207;86;21060;-81
2021/12/28 05:43:24;;;;;;;77.30;29.90;;;;;;;-5.28;93.23;98415.34;3993853;88;21116;-81
2021/12/28 05:49:26;;;;;;;64.93;27.17;;;;;;;-5.25;93.26;98416.66;3958190;88;21148;-81
2021/12/28 05:55:27;;;;;;;69.57;28.67;;;;;;;-5.21;93.26;98421.13;3951620;88;21075;-81
2021/12/28 06:01:30;;;;;;;67.77;28.03;;;;;;;-5.20;93.38;98422.70;3950699;88;21068;-81
2021/12/28 06:07:31;;;;;;;70.60;29.27;;;;;;;-5.16;93.37;98411.73;3959548;88;21082;-83
2021/12/28 06:13:32;;;;;;;72.20;29.13;;;;;;;-5.16;93.33;98409.06;4012265;88;21568;-81
2021/12/28 06:19:34;;;;;;;67.63;28.10;;;;;;;-5.14;93.31;98405.58;4007344;87;21087;-81
2021/12/28 06:25:35;;;;;;;72.03;29.37;;;;;;;-5.12;93.46;98416.73;4008091;88;21067;-81
2021/12/28 06:31:36;;;;;;;74.60;29.23;;;;;;;-5.08;93.39;98419.09;4010638;87;21060;-81
2021/12/28 06:37:38;;;;;;;70.23;28.70;;;;;;;-5.10;93.33;98413.25;4011391;87;21151;-81
2021/12/28 06:43:39;;;;;;;73.60;28.67;;;;;;;-5.10;93.38;98421.78;3993951;88;21027;-81
2021/12/28 06:49:41;;;;;;;70.37;27.73;;;;;;;-5.09;93.43;98426.06;4007252;87;21078;-81
2021/12/28 06:55:42;;;;;;;63.57;27.00;;;;;;;-5.10;93.31;98422.59;4007269;88;21207;-81
2021/12/28 07:01:44;;;;;;;66.17;28.63;;;;;;;-5.12;93.29;98415.40;4012434;87;21478;-80
2021/12/28 07:07:46;;;;;;;68.77;27.67;;;;;;;-5.15;93.29;98415.98;4001371;87;21075;-82
2021/12/28 07:14:12;;;;;;;66.40;27.20;;;;;;;-5.19;93.29;98419.51;3957940;88;21073;-81
2021/12/28 07:20:38;;;;;;;69.20;28.33;;;;;;;-5.20;93.34;98425.94;3943809;88;21186;-81
2021/12/28 07:26:37;;;;;;;69.20;29.07;;;;;;;-5.20;93.43;98420.04;3946668;88;21233;-80
2021/12/28 07:32:40;;;;;;;66.83;28.20;;;;;;;-5.13;93.36;98424.50;3956901;88;21146;-81
2021/12/28 07:38:42;;;;;;;67.07;27.70;;;;;;;-5.11;93.33;98435.69;3960049;88;21117;-80
2021/12/28 07:44:43;;;;;;;74.77;33.13;;;;;;;-5.09;93.32;98446.08;3960599;88;21536;-81
2021/12/28 07:50:44;;;;;;;65.30;27.87;;;;;;;-5.02;93.33;98446.50;3969329;88;21079;-81
2021/12/28 07:56:45;;;;;;;71.50;30.33;;;;;;;-4.97;93.29;98439.23;3954900;88;21083;-81
2021/12/28 08:03:03;;;;;;;79.03;30.30;;;;;;;-4.92;93.30;98440.48;3965926;88;21067;-81
2021/12/28 08:09:04;;;;;;;68.73;30.53;;;;;;;-4.82;93.42;98429.67;3965190;88;21053;-82
2021/12/28 08:15:07;;;;;;;69.77;28.63;;;;;;;-4.67;93.43;98435.87;3996977;88;21051;-82
2021/12/28 08:21:09;;;;;;;69.83;29.10;;;;;;;-4.63;93.31;98440.34;3999055;88;21063;-81
2021/12/28 08:27:12;;;;;;;57.77;26.23;;;;;;;-4.59;93.20;98444.03;4012601;88;21056;-80
2021/12/28 08:33:14;;;;;;;72.10;29.27;;;;;;;-4.50;93.30;98435.61;4001629;87;21035;-81
2021/12/28 08:39:15;;;;;;;71.63;31.10;;;;;;;-4.33;93.24;98420.36;4016729;86;21027;-81
2021/12/28 08:45:17;;;;;;;76.03;31.03;;;;;;;-4.20;93.11;98423.63;4014703;87;21940;-81
2021/12/28 08:51:18;;;;;;;61.93;28.00;;;;;;;-4.00;93.27;98404.56;4002986;87;21090;-81
2021/12/28 08:57:21;;;;;;;71.90;31.93;;;;;;;-3.95;92.79;98385.23;4009427;87;21075;-81
2021/12/28 09:03:24;;;;;;;59.03;26.97;;;;;;;-3.90;92.87;98387.01;4008390;87;21115;-81
2021/12/28 09:16:12;;;;;;;63.95;29.00;;;;;;;-3.87;92.51;98400.56;4085170;85;21070;-80
2021/12/28 09:22:13;;;;;;;75.10;30.67;;;;;;;-3.89;92.21;98394.73;4088924;86;21031;-81
2021/12/28 09:28:15;;;;;;;60.57;28.33;;;;;;;-3.86;92.36;98392.80;4091469;85;21086;-81
2021/12/28 09:34:23;;;;;;;62.53;27.63;;;;;;;-3.73;92.17;98396.02;4074076;86;21022;-81
2021/12/28 09:40:24;;;;;;;72.73;29.97;;;;;;;-3.71;91.67;98399.76;4085839;86;21081;-80
2021/12/28 09:46:42;;;;;;;64.90;30.40;;;;;;;-3.63;91.92;98407.06;4106419;86;21019;-80
2021/12/28 09:59:49;;;;;;;70.60;30.17;;;;;;;-3.64;91.51;98402.28;4089148;86;21134;-80
2021/12/28 10:05:50;;;;;;;61.47;28.90;;;;;;;-3.51;91.57;98382.73;4087599;85;21161;-81
2021/12/28 10:11:55;;;;;;;71.87;30.40;;;;;;;-3.37;91.57;98351.97;4081500;83;21956;-82
2021/12/28 10:18:01;;;;;;;69.67;30.70;;;;;;;-2.99;91.33;98334.50;4077714;85;21078;-81
2021/12/28 10:24:05;;;;;;;69.50;29.43;;;;;;;-2.64;91.10;98313.58;4088140;86;21161;-81
2021/12/28 10:30:15;;;;;;;54.93;26.43;;;;;;;-2.41;90.65;98304.98;4077540;86;21062;-81
2021/12/28 10:36:17;;;;;;;66.13;28.63;;;;;;;-2.35;90.16;98313.12;4075222;86;21109;-82
2021/12/28 10:42:40;;;;;;;58.63;27.63;;;;;;;-2.06;90.63;98325.48;4085150;86;21070;-81
2021/12/28 10:48:47;;;;;;;57.43;27.10;;;;;;;-1.78;90.46;98333.56;3996675;88;21599;-81
2021/12/28 10:54:48;;;;;;;64.80;29.13;;;;;;;-1.70;88.02;98321.53;4072191;86;21642;-81
2021/12/28 11:00:52;;;;;;;65.57;31.37;;;;;;;-1.66;89.29;98290.27;4077667;86;21079;-81
2021/12/28 11:06:54;;;;;;;65.60;31.27;;;;;;;-1.55;89.63;98264.50;4063988;86;21519;-81
2021/12/28 11:12:55;;;;;;;67.85;32.05;;;;;;;-1.57;89.30;98272.29;4082281;83;21146;-82
2021/12/28 11:19:00;;;;;;;70.60;30.63;;;;;;;-1.59;88.94;98268.35;4095738;86;21506;-83
2021/12/28 11:25:01;;;;;;;65.57;30.87;;;;;;;-1.66;88.86;98258.64;4083809;86;21102;-81
2021/12/28 11:31:20;;;;;;;63.30;28.37;;;;;;;-1.76;88.36;98237.47;4078566;86;21109;-82
2021/12/28 11:37:26;;;;;;;71.53;33.87;;;;;;;-1.82;88.16;98227.41;4088004;85;21597;-81
2021/12/28 11:43:27;;;;;;;69.47;32.63;;;;;;;-1.84;88.20;98214.89;4077674;86;21145;-81
2021/12/28 11:49:30;;;;;;;66.90;29.53;;;;;;;-1.80;88.48;98206.44;4087483;86;21093;-81
2021/12/28 11:55:31;;;;;;;67.30;30.97;;;;;;;-1.72;88.24;98202.98;4088096;84;21037;-80
2021/12/28 12:01:53;;;;;;;64.77;30.70;;;;;;;-1.69;88.04;98199.66;4020433;86;21120;-80
2021/12/28 12:08:13;;;;;;;67.15;30.97;;;;;;;-1.64;87.51;98218.84;4030567;86;21026;-81
2021/12/28 12:14:15;;;;;;;66.50;30.05;;;;;;;-1.78;87.17;98191.37;4084439;86;21579;-81
2021/12/28 12:20:30;;;;;;;65.42;29.82;;;;;;;-1.91;86.75;98158.78;4174191;84;21014;-80
2021/12/28 12:26:34;;;;;;;68.50;29.60;;;;;;;-1.92;87.09;98178.10;4151545;84;21644;-81
2021/12/28 12:33:00;;;;;;;62.07;29.00;;;;;;;-1.94;86.86;98180.84;4087300;86;21054;-81
2021/12/28 12:39:06;;;;;;;66.93;28.73;;;;;;;-1.95;86.85;98172.56;4097845;86;21035;-80
2021/12/28 12:45:08;;;;;;;66.75;28.05;;;;;;;-2.02;86.77;98166.32;4088868;86;21051;-80
2021/12/28 12:51:29;;;;;;;67.57;28.70;;;;;;;-1.99;86.74;98163.58;4092138;86;21518;-80
2021/12/28 12:57:31;;;;;;;70.33;31.60;;;;;;;-1.99;85.85;98161.67;4162218;84;20998;-80
2021/12/28 13:03:34;;;;;;;77.83;32.50;;;;;;;-2.01;86.22;98155.05;4078128;86;21089;-80
2021/12/28 13:09:38;;;;;;;72.97;34.67;;;;;;;-2.02;86.34;98162.87;4032194;87;21602;-80
2021/12/28 13:15:39;;;;;;;67.17;29.10;;;;;;;-2.03;86.24;98147.31;3980645;88;21139;-80
2021/12/28 13:22:01;;;;;;;76.20;31.82;;;;;;;-2.06;86.02;98158.67;4127214;85;21046;-80
2021/12/28 13:28:06;;;;;;;64.58;28.10;;;;;;;-2.12;86.04;98158.59;4119651;85;21081;-80
2021/12/28 13:34:08;;;;;;;52.70;21.80;;;;;;;-2.17;85.92;98156.05;4114851;85;21061;-81
2021/12/28 13:40:23;;;;;;;64.23;28.33;;;;;;;-2.22;85.80;98150.83;4123778;85;21524;-81
2021/12/28 13:46:24;;;;;;;65.95;28.05;;;;;;;-2.32;85.75;98143.06;4114128;85;21589;-80
2021/12/28 13:52:27;;;;;;;56.27;26.93;;;;;;;-2.38;85.75;98132.25;4118126;85;21003;-80
2021/12/28 13:58:32;;;;;;;61.17;29.23;;;;;;;-2.43;85.71;98139.12;4133264;85;21117;-81
2021/12/28 14:04:34;;;;;;;74.30;31.10;;;;;;;-2.47;85.63;98138.14;4114175;85;21049;-80
2021/12/28 14:10:36;;;;;;;76.77;33.83;;;;;;;-2.49;85.66;98130.19;4106931;84;21643;-80
2021/12/28 14:17:09;;;;;;;81.00;35.23;;;;;;;-2.63;85.71;98111.52;4059051;86;21027;-80
2021/12/28 14:23:09;;;;;;;72.10;32.70;;;;;;;-2.73;85.84;98094.41;4052039;86;22191;-79
2021/12/28 14:29:22;;;;;;;70.63;31.70;;;;;;;-2.81;86.06;98097.05;4050031;85;21094;-80
2021/12/28 14:35:28;;;;;;;75.03;32.97;;;;;;;-2.85;86.25;98102.23;4047806;86;21027;-80
2021/12/28 14:41:29;;;;;;;99.03;41.28;;;;;;;-2.81;86.50;98109.10;4049233;86;22030;-81
2021/12/28 14:47:33;;;;;;;97.60;41.50;;;;;;;-2.83;86.43;98105.39;4046169;85;21160;-80
2021/12/28 14:53:34;;;;;;;89.50;38.67;;;;;;;-2.85;86.56;98112.17;4048077;85;21086;-80
2021/12/28 14:59:37;;;;;;;80.43;35.67;;;;;;;-2.90;86.46;98116.32;4025942;85;21067;-81
2021/12/28 15:05:46;;;;;;;92.00;38.90;;;;;;;-3.01;86.40;98099.74;4051590;86;21102;-81
2021/12/28 15:11:47;;;;;;;126.40;50.73;;;;;;;-3.08;86.56;98095.36;4081756;84;21000;-80
2021/12/28 15:17:50;;;;;;;92.83;39.03;;;;;;;-3.12;86.85;98089.06;4157685;84;21124;-80
2021/12/28 15:23:52;;;;;;;79.30;33.87;;;;;;;-3.12;86.74;98089.06;4163880;84;21638;-80
2021/12/28 15:29:53;;;;;;;76.33;34.17;;;;;;;-3.15;86.89;98082.19;4085250;86;21582;-81
2021/12/28 15:35:56;;;;;;;76.97;35.40;;;;;;;-3.19;87.04;98083.34;4025732;87;21087;-82
2021/12/28 15:41:59;;;;;;;95.57;40.30;;;;;;;-3.23;86.99;98073.02;4008166;87;21079;-80
2021/12/28 15:48:00;;;;;;;94.93;41.87;;;;;;;-3.30;87.00;98065.42;4035831;87;21543;-81
2021/12/28 15:54:06;;;;;;;87.10;38.17;;;;;;;-3.37;87.07;98054.35;4080610;86;21138;-81
2021/12/28 16:00:15;;;;;;;86.80;40.27;;;;;;;-3.37;87.36;98049.57;4076717;86;21097;-81
2021/12/28 16:06:17;;;;;;;81.63;37.83;;;;;;;-3.42;87.32;98033.10;4020650;87;21310;-80
2021/12/28 16:12:18;;;;;;;74.80;35.57;;;;;;;-3.45;87.68;98043.09;4051734;86;21505;-80
2021/12/28 16:18:19;;;;;;;83.73;38.90;;;;;;;-3.53;87.74;98046.50;4091319;86;21077;-81
2021/12/28 16:24:20;;;;;;;87.70;38.87;;;;;;;-3.58;87.63;98029.23;4099330;86;21074;-81
2021/12/28 16:30:26;;;;;;;98.07;43.93;;;;;;;-3.63;87.91;98025.88;4098331;86;21126;-81
2021/12/28 16:36:28;;;;;;;87.10;39.45;;;;;;;-3.72;87.65;98010.34;4093030;86;21038;-81
2021/12/28 16:42:29;;;;;;;104.77;47.47;;;;;;;-3.82;87.91;98003.36;4100561;86;21086;-80
2021/12/28 16:48:33;;;;;;;91.33;40.97;;;;;;;-3.89;88.26;97992.86;4087949;85;21615;-80
2021/12/28 16:54:34;;;;;;;85.90;39.30;;;;;;;-3.95;88.37;97998.89;4016379;87;21075;-80
2021/12/28 17:00:38;;;;;;;80.27;37.97;;;;;;;-3.99;88.53;98001.11;4092269;85;21095;-81
2021/12/28 17:06:39;;;;;;;78.07;36.30;;;;;;;-4.03;88.46;97976.10;4091323;86;21018;-80
2021/12/28 17:12:40;;;;;;;84.47;37.43;;;;;;;-4.12;88.59;97981.37;4114047;84;21081;-80
2021/12/28 17:19:32;;;;;;;86.53;38.20;;;;;;;-4.17;88.82;97982.06;4155618;84;21538;-80
2021/12/28 17:25:46;;;;;;;77.97;36.20;;;;;;;-4.22;88.82;97989.66;4123449;83;21084;-81
2021/12/28 17:31:49;;;;;;;88.17;39.90;;;;;;;-4.30;88.99;98002.41;4135692;84;21925;-80
2021/12/28 17:37:51;;;;;;;87.23;42.23;;;;;;;-4.38;88.58;97982.28;4132547;84;21061;-80
2021/12/28 17:43:52;;;;;;;80.50;37.77;;;;;;;-4.50;88.66;97987.38;4137682;84;21129;-80
2021/12/28 17:50:11;;;;;;;81.30;37.73;;;;;;;-4.59;89.02;97976.64;4056893;86;21919;-80
2021/12/28 17:56:13;;;;;;;73.60;32.93;;;;;;;-4.63;89.26;97972.97;4134452;84;21097;-80
2021/12/28 18:02:15;;;;;;;75.70;32.07;;;;;;;-4.63;89.45;97980.19;4142701;84;21018;-79
2021/12/28 18:08:18;;;;;;;73.97;33.17;;;;;;;-4.65;89.29;97975.71;4129499;84;21097;-80
2021/12/28 18:14:21;;;;;;;87.80;36.80;;;;;;;-4.69;89.36;97975.52;4067529;83;21119;-80
2021/12/28 18:20:44;;;;;;;82.53;37.63;;;;;;;-4.76;89.42;97973.79;4036451;86;20990;-79
2021/12/28 18:26:46;;;;;;;87.53;36.80;;;;;;;-4.82;89.24;97958.97;4022906;87;21034;-79
2021/12/28 18:33:05;;;;;;;86.07;40.93;;;;;;;-4.97;89.21;97952.11;4036405;87;21050;-79
2021/12/28 18:39:07;;;;;;;91.47;41.07;;;;;;;-5.07;89.40;97938.17;4038493;87;21586;-80
2021/12/28 18:45:18;;;;;;;93.97;41.67;;;;;;;-5.15;89.34;97927.66;4026011;86;21606;-80
2021/12/28 18:51:19;;;;;;;82.90;36.13;;;;;;;-5.19;89.69;97950.70;4024451;87;21185;-80
2021/12/28 18:57:21;;;;;;;83.53;39.00;;;;;;;-5.23;89.69;97954.27;4030236;86;21096;-79
2021/12/28 19:03:43;;;;;;;117.40;52.03;;;;;;;-5.21;89.73;97947.53;4042284;87;21061;-80
2021/12/28 19:10:12;;;;;;;100.07;43.90;;;;;;;-5.30;89.67;97942.66;4016932;87;21050;-79
2021/12/28 19:16:18;;;;;;;89.27;39.83;;;;;;;-5.34;89.97;97933.66;4075964;85;20987;-80
2021/12/28 19:22:19;;;;;;;94.23;43.53;;;;;;;-5.37;90.01;97938.82;4067765;87;20998;-80
2021/12/28 19:28:23;;;;;;;142.60;55.53;;;;;;;-5.45;89.69;97938.17;4077566;86;21590;-80
2021/12/28 19:34:25;;;;;;;82.57;36.80;;;;;;;-5.52;89.93;97930.57;4081382;86;21539;-80
2021/12/28 19:40:30;;;;;;;92.67;37.17;;;;;;;-5.55;90.14;97923.70;4090010;85;21027;-80
2021/12/28 19:46:33;;;;;;;90.90;36.60;;;;;;;-5.56;89.97;97916.23;3987020;88;21047;-79
2021/12/28 19:52:34;;;;;;;90.63;36.90;;;;;;;-5.57;90.20;97912.00;4069489;86;21158;-80
2021/12/28 19:58:35;;;;;;;91.60;38.60;;;;;;;-5.60;90.14;97909.12;4077596;86;21587;-81
2021/12/28 20:04:38;;;;;;;93.37;40.07;;;;;;;-5.59;90.47;97920.06;4079918;85;22133;-80
2021/12/28 20:10:43;;;;;;;99.13;41.83;;;;;;;-5.60;90.34;97905.92;4068408;86;21027;-81
2021/12/28 20:16:45;;;;;;;90.03;38.30;;;;;;;-5.64;90.10;97888.16;4155834;84;20985;-81
2021/12/28 20:22:47;;;;;;;98.23;41.63;;;;;;;-5.68;90.49;97900.48;4155223;84;21072;-80
2021/12/28 20:28:50;;;;;;;107.70;42.23;;;;;;;-5.70;90.52;97902.11;4151185;83;21088;-81
2021/12/28 20:34:52;;;;;;;103.53;43.13;;;;;;;-5.72;90.42;97888.31;4040713;84;9999840;-81
2021/12/28 20:40:55;;;;;;;100.97;42.63;;;;;;;-5.74;90.40;97870.48;4162846;83;22232;-80
2021/12/28 20:47:14;;;;;;;102.97;42.30;;;;;;;-5.80;90.56;97872.20;4163020;84;21071;-79
2021/12/28 20:53:17;;;;;;;95.20;39.30;;;;;;;-5.77;90.90;97880.41;4141651;84;20998;-80
2021/12/28 20:59:18;;;;;;;97.07;47.00;;;;;;;-5.72;90.79;97874.19;4196952;84;20974;-80
2021/12/28 21:05:28;;;;;;;109.13;49.83;;;;;;;-5.82;90.59;97889.06;4151924;84;20964;-80
2021/12/28 21:11:29;;;;;;;102.13;41.97;;;;;;;-5.92;90.29;97874.05;4159626;84;21447;-79
2021/12/28 21:17:31;;;;;;;99.57;44.00;;;;;;;-6.06;90.32;97864.48;4074894;86;21611;-81
2021/12/28 21:23:33;;;;;;;120.57;52.13;;;;;;;-6.11;90.60;97859.25;4063704;86;21118;-81
2021/12/28 21:29:37;;;;;;;108.95;48.94;;;;;;;-6.12;90.57;97839.03;3955352;86;10000029;-81
2021/12/28 21:35:38;;;;;;;115.97;51.73;;;;;;;-6.21;90.33;97836.25;4015877;87;21064;-81
2021/12/28 21:48:36;;;;;;;110.57;46.30;;;;;;;-6.21;90.82;97854.89;4068589;86;21057;-81
2021/12/28 21:54:38;;;;;;;121.93;50.60;;;;;;;-6.25;90.68;97851.25;4029155;87;21599;-80
2021/12/28 22:00:40;;;;;;;130.90;55.07;;;;;;;-6.22;91.07;97836.55;4030093;87;21163;-81
2021/12/28 22:06:41;;;;;;;117.33;46.10;;;;;;;-6.18;91.10;97829.53;4026023;87;21139;-80
2021/12/28 22:12:43;;;;;;;123.87;52.00;;;;;;;-6.12;91.43;97831.05;4012893;87;22312;-81
2021/12/28 22:18:44;;;;;;;135.97;56.60;;;;;;;-6.04;91.41;97808.48;3978077;88;21131;-81
2021/12/28 22:24:45;;;;;;;133.43;55.50;;;;;;;-6.03;91.18;97782.10;3974327;88;21145;-80
2021/12/28 22:30:48;;;;;;;127.27;51.60;;;;;;;-5.94;92.01;97779.52;3981240;87;21093;-80
2021/12/28 22:36:50;;;;;;;122.13;52.47;;;;;;;-5.79;92.11;97763.16;3974083;88;21075;-80
2021/12/28 22:42:52;;;;;;;155.37;60.07;;;;;;;-5.67;92.44;97774.89;3974240;87;21573;-81
2021/12/28 22:48:54;;;;;;;147.47;57.93;;;;;;;-5.56;92.51;97784.81;4031627;86;21577;-81
2021/12/28 22:54:57;;;;;;;144.07;55.50;;;;;;;-5.47;92.60;97789.67;4093560;85;21094;-81
2021/12/28 23:01:01;;;;;;;139.43;53.20;;;;;;;-5.38;92.48;97787.86;4030060;86;21443;-81
2021/12/28 23:07:03;;;;;;;122.87;47.73;;;;;;;-5.35;92.61;97787.25;4084961;86;21059;-80
2021/12/28 23:13:07;;;;;;;121.80;48.03;;;;;;;-5.29;92.80;97795.38;4123433;84;22485;-80
2021/12/28 23:19:09;;;;;;;115.20;46.07;;;;;;;-5.23;92.82;97824.31;4114232;85;21086;-80
2021/12/28 23:25:12;;;;;;;106.03;43.80;;;;;;;-5.20;92.82;97821.05;4098928;85;21062;-80
2021/12/28 23:31:29;;;;;;;112.37;46.43;;;;;;;-5.24;92.38;97832.09;4110587;85;21090;-80
2021/12/28 23:37:29;;;;;;;102.23;44.10;;;;;;;-5.23;92.92;97832.88;4110046;85;21038;-81
2021/12/28 23:43:31;;;;;;;103.03;45.00;;;;;;;-5.20;92.48;97823.71;4119050;85;21097;-80
2021/12/28 23:49:33;;;;;;;217.47;86.07;;;;;;;-5.19;92.90;97823.17;4114231;84;21022;-80
2021/12/28 23:55:34;;;;;;;213.57;84.00;;;;;;;-5.17;92.66;97831.11;4110807;85;21058;-81
